CDT,Max TemperatureF,Mean TemperatureF,Min TemperatureF,Max Dew PointF,MeanDew PointF,Min DewpointF,Max Humidity, Mean Humidity, Min Humidity, Max Sea Level PressureIn, Mean Sea Level PressureIn, Min Sea Level PressureIn, Max VisibilityMiles, Mean VisibilityMiles, Min VisibilityMiles, Max Wind SpeedMPH, Mean Wind SpeedMPH, Max Gust SpeedMPH,PrecipitationIn, CloudCover, Events, WindDirDegrees
2013-9-1,81,73,64,73,65,59,96,78,42,30.03,29.90,29.76,10,9,2,23,10,28,0.37,2,Rain-Thunderstorm,344
2013-9-2,79,66,53,59,56,53,97,73,37,30.12,30.06,30.02,10,10,8,9,3,12,0.00,0,,360
2013-9-3,83,67,51,69,61,51,100,79,58,30.10,30.04,29.99,10,10,10,14,6,17,0.00,0,,140
2013-9-4,84,74,63,72,65,62,93,76,58,30.12,30.08,30.01,10,10,3,16,7,20,0.34,3,Rain,141
2013-9-5,82,75,67,72,67,64,93,80,67,30.17,30.13,30.07,10,9,4,15,8,18,0.39,6,Rain-Thunderstorm,146
2013-9-6,88,76,64,74,69,63,100,83,65,30.07,29.96,29.85,10,10,10,17,10,22,0.00,0,,139
2013-9-7,87,78,68,74,70,67,97,81,65,29.96,29.89,29.83,10,7,0,17,6,21,T,0,Fog-Rain-Thunderstorm,62
2013-9-8,87,77,66,75,70,64,100,89,60,29.95,29.88,29.76,10,5,0,16,7,21,0.00,1,Fog,104
2013-9-9,94,81,68,71,67,62,96,66,36,29.82,29.74,29.70,10,9,4,21,9,26,0.00,0,,175
2013-9-10,88,76,64,69,66,62,100,75,50,30.03,29.92,29.83,10,10,9,15,5,18,0.00,2,,353
2013-9-11,87,75,62,67,64,56,100,68,35,30.11,30.08,30.04,10,10,10,9,2,10,0.00,1,,277
2013-9-12,80,66,52,61,51,45,93,61,28,30.26,30.19,30.11,10,10,7,16,7,22,0.00,0,,18
2013-9-13,76,60,44,52,49,46,100,69,38,30.25,30.18,30.07,10,9,0,10,4,21,0.00,0,Fog,118
2013-9-14,76,62,48,58,52,46,93,70,46,30.07,29.97,29.84,10,10,10,20,9,28,T,4,,146
2013-9-15,70,65,60,61,56,52,88,72,51,30.28,30.04,29.82,10,10,10,24,11,31,0.00,7,,24
2013-9-16,72,63,54,55,53,50,94,73,47,30.36,30.29,30.19,10,10,10,16,8,21,T,6,,109
2013-9-17,69,63,57,66,59,53,100,93,86,30.19,30.03,29.85,10,6,2,16,10,21,0.05,8,Rain,148
2013-9-18,89,79,68,70,68,66,96,75,99,29.85,29.72,29.64,10,9,5,23,12,28,0.00,4,,166
2013-9-19,77,66,55,67,60,47,93,67,41,30.00,29.78,29.63,10,10,9,33,12,44,0.02,4,Rain,292
2013-9-20,69,55,41,49,44,40,89,63,36,30.06,30.01,29.97,10,10,10,23,9,29,0.00,0,,311
2013-9-21,76,55,34,52,44,36,92,63,33,30.04,29.96,29.86,10,10,10,15,6,20,0.00,0,,135
2013-9-22,86,68,50,56,50,45,96,61,22,29.86,29.81,29.75,10,10,10,26,13,35,0.00,0,,151
2013-9-23,80,66,51,52,51,49,96,66,35,29.82,29.77,29.72,10,10,10,24,13,33,0.00,0,,141
2013-9-24,75,63,51,58,55,50,100,75,50,29.93,29.86,29.77,10,10,5,10,5,15,0.12,5,Rain,49
2013-9-25,80,63,45,59,52,45,100,73,45,29.93,29.88,29.73,10,4,0,20,8,28,0.00,0,Fog,141
2013-9-26,89,75,60,60,58,56,90,62,34,29.77,29.73,29.68,10,10,10,29,15,40,0.00,0,,148
2013-9-27,89,79,69,61,60,58,73,56,31,29.79,29.74,29.68,10,10,10,28,16,36,T,0,Thunderstorm,159
2013-9-28,74,59,43,60,49,40,93,65,37,30.03,29.85,29.64,10,10,3,21,10,28,0.15,4,Rain,306
2013-9-29,82,62,42,47,42,40,96,59,22,30.03,29.92,29.82,10,10,10,25,13,32,0.00,0,,158
2013-9-30,86,70,54,51,47,44,72,49,25,29.81,29.71,29.62,10,10,10,23,12,29,0.00,0,,173